New Albany, MS

4:17 AM CDT on May 27, 2015 (GMT -0500)
Aberdeen / Amory | | Change Station
CLOSE
Current Station
Airport
Location: Aberdeen / Amory,
Elevation: 223 ft
Nearby Weather Stations

Elev 223 ft 33.87 °N, 88.49 °W | Updated 56 days ago

Clear
Clear
66 °F
Feels Like 66 °F
N
2
Wind Variable Wind from South
Gusts mph

Today
High -- | Low -- °F
--% Chance of Precip.
Yesterday
High -- | Low -- °F
Precip. -- in
5:46 AM 8:00 PM
Waxing Gibbous, 65% visible
Pressure 29.97 in
Visibility 8.0 miles
Clouds Few 8000 ft
Dew Point 64 °F
Humidity 93%
Rainfall 0.00 in
Snow Depth Not available.
UV 0 out of 12
Pollen 3.80 out of 12
Air Quality Not available.
Flu Activity No Activity
METAR KM40 010235Z AUTO 00000KT 8SM FEW080 19/14 A2997 RMK AO2

More Conditions Fewer Conditions

Pressure 29.97 in
Visibility 8.0 miles
Clouds Few 8000 ft
Dew Point 64 °F
Humidity 93%
Rainfall 0.00 in
Snow Depth Not available.
UV 0 out of 12
Pollen 3.80 out of 12
Air Quality Not available.
Flu Activity No Activity
METAR KM40 010235Z AUTO 00000KT 8SM FEW080 19/14 A2997 RMK AO2

More Conditions Fewer Conditions

10-Day Weather Forecast

Almanac

Astronomy

May. 27, 2015 Rise Set
Actual Time
Civil Twilight
Nautical Twilight
Astronomical Twilight
Moon
Length of Visible Light
Length of Day
Tomorrow will be .
, % of the Moon is Illuminated

Today's Extremes

State Highs State Lows

Community

WunderPhotos

Upload Photos

1,824,634 photos uploaded!

WunderBlogs® & News

Nearby

Air Quality

  Air Quality AQ Index Pollutant
Not available.

Snow Depth

Station Depth Elevation

Earthquake Activity

City Distance Mag. Time & Date
Minimum magnitude displayed is 2.5.

Coastal Water Temperatures

Place Temperature

Stations

Nearby Weather Stations

Station Location Temp. Windchill Dew Point Humidity Wind Precip. Elev Updated Type